sensor_id;sensor_type;location;lat;lon;timestamp;pressure;altitude;pressure_sealevel;temperature;humidity
83116;BME280;72996;40.206;44.498;2024-01-16T00:01:41;89649.03;;;2.93;40.20
83116;BME280;72996;40.206;44.498;2024-01-16T00:04:08;89682.34;;;3.27;39.88
83116;BME280;72996;40.206;44.498;2024-01-16T00:06:33;89684.41;;;3.40;39.49
83116;BME280;72996;40.206;44.498;2024-01-16T00:08:59;89681.72;;;3.51;39.37
83116;BME280;72996;40.206;44.498;2024-01-16T00:11:24;89689.09;;;3.52;39.37
83116;BME280;72996;40.206;44.498;2024-01-16T00:13:50;89691.72;;;3.47;39.61
83116;BME280;72996;40.206;44.498;2024-01-16T00:16:16;89657.22;;;3.13;39.70
83116;BME280;72996;40.206;44.498;2024-01-16T00:18:41;89664.47;;;3.37;39.81
83116;BME280;72996;40.206;44.498;2024-01-16T00:21:07;89664.72;;;3.33;39.48
83116;BME280;72996;40.206;44.498;2024-01-16T00:23:32;89669.00;;;3.31;39.33
83116;BME280;72996;40.206;44.498;2024-01-16T00:25:58;89672.16;;;3.24;39.52
83116;BME280;72996;40.206;44.498;2024-01-16T00:28:24;89659.09;;;3.18;39.70
83116;BME280;72996;40.206;44.498;2024-01-16T00:30:49;89655.28;;;3.25;39.46
83116;BME280;72996;40.206;44.498;2024-01-16T00:33:15;89634.00;;;3.10;39.43
83116;BME280;72996;40.206;44.498;2024-01-16T00:35:41;89646.28;;;3.20;39.38
83116;BME280;72996;40.206;44.498;2024-01-16T00:38:06;89664.78;;;3.28;39.13
83116;BME280;72996;40.206;44.498;2024-01-16T00:40:32;89648.78;;;3.37;39.40
83116;BME280;72996;40.206;44.498;2024-01-16T00:42:58;89642.97;;;3.55;39.47
83116;BME280;72996;40.206;44.498;2024-01-16T00:45:23;89633.19;;;3.61;39.52
83116;BME280;72996;40.206;44.498;2024-01-16T00:47:49;89641.31;;;3.57;39.69
83116;BME280;72996;40.206;44.498;2024-01-16T00:50:15;89636.84;;;3.47;39.63
83116;BME280;72996;40.206;44.498;2024-01-16T00:52:40;89638.53;;;3.44;39.30
83116;BME280;72996;40.206;44.498;2024-01-16T00:55:06;89651.09;;;3.51;39.20
83116;BME280;72996;40.206;44.498;2024-01-16T00:57:32;89646.09;;;3.48;39.54
83116;BME280;72996;40.206;44.498;2024-01-16T00:59:57;89652.97;;;3.51;39.58
83116;BME280;72996;40.206;44.498;2024-01-16T01:02:23;89647.03;;;3.50;39.86
83116;BME280;72996;40.206;44.498;2024-01-16T01:04:49;89646.47;;;3.63;39.77
83116;BME280;72996;40.206;44.498;2024-01-16T01:07:14;89640.25;;;3.71;38.93
83116;BME280;72996;40.206;44.498;2024-01-16T01:09:40;89644.94;;;3.78;39.14
83116;BME280;72996;40.206;44.498;2024-01-16T01:12:06;89639.25;;;3.80;39.55
83116;BME280;72996;40.206;44.498;2024-01-16T01:14:33;89631.69;;;3.71;39.80
83116;BME280;72996;40.206;44.498;2024-01-16T01:16:59;89629.53;;;3.75;39.03
83116;BME280;72996;40.206;44.498;2024-01-16T01:19:24;89643.38;;;3.94;39.38
83116;BME280;72996;40.206;44.498;2024-01-16T01:21:50;89633.66;;;3.94;39.40
83116;BME280;72996;40.206;44.498;2024-01-16T01:24:16;89622.63;;;4.01;38.76
83116;BME280;72996;40.206;44.498;2024-01-16T01:26:44;89611.06;;;3.91;39.19
83116;BME280;72996;40.206;44.498;2024-01-16T01:29:10;89612.75;;;3.89;39.45
83116;BME280;72996;40.206;44.498;2024-01-16T01:31:36;89612.25;;;3.96;38.43
83116;BME280;72996;40.206;44.498;2024-01-16T01:34:02;89631.59;;;3.82;39.18
83116;BME280;72996;40.206;44.498;2024-01-16T01:36:28;89653.88;;;3.59;39.21
83116;BME280;72996;40.206;44.498;2024-01-16T01:38:53;89659.13;;;3.59;39.50
83116;BME280;72996;40.206;44.498;2024-01-16T01:41:19;89650.06;;;3.60;39.92
83116;BME280;72996;40.206;44.498;2024-01-16T01:43:45;89630.66;;;3.50;39.76
83116;BME280;72996;40.206;44.498;2024-01-16T01:46:16;89619.31;;;3.42;39.50
83116;BME280;72996;40.206;44.498;2024-01-16T01:48:43;89627.69;;;3.35;39.63
83116;BME280;72996;40.206;44.498;2024-01-16T01:51:10;89644.44;;;3.50;39.98
83116;BME280;72996;40.206;44.498;2024-01-16T01:53:39;89640.00;;;3.40;39.86
83116;BME280;72996;40.206;44.498;2024-01-16T01:56:08;89644.78;;;3.71;40.15
83116;BME280;72996;40.206;44.498;2024-01-16T01:58:36;89608.09;;;3.82;39.67
83116;BME280;72996;40.206;44.498;2024-01-16T02:01:06;89616.81;;;4.14;38.96
83116;BME280;72996;40.206;44.498;2024-01-16T02:03:42;89626.66;;;4.32;38.83
83116;BME280;72996;40.206;44.498;2024-01-16T02:06:10;89629.66;;;4.17;39.75
83116;BME280;72996;40.206;44.498;2024-01-16T02:08:36;89636.88;;;4.06;39.38
83116;BME280;72996;40.206;44.498;2024-01-16T02:11:02;89637.84;;;4.03;40.26
83116;BME280;72996;40.206;44.498;2024-01-16T02:13:28;89641.13;;;4.09;40.16
83116;BME280;72996;40.206;44.498;2024-01-16T02:15:54;89627.84;;;4.07;41.14
83116;BME280;72996;40.206;44.498;2024-01-16T02:18:19;89616.41;;;3.80;41.06
83116;BME280;72996;40.206;44.498;2024-01-16T02:20:45;89603.38;;;3.45;41.44
83116;BME280;72996;40.206;44.498;2024-01-16T02:23:14;89610.72;;;3.47;42.94
83116;BME280;72996;40.206;44.498;2024-01-16T02:25:41;89597.06;;;3.30;44.35
83116;BME280;72996;40.206;44.498;2024-01-16T02:28:07;89613.66;;;3.38;43.95
83116;BME280;72996;40.206;44.498;2024-01-16T02:30:33;89600.91;;;3.23;44.11
83116;BME280;72996;40.206;44.498;2024-01-16T02:32:59;89606.97;;;3.02;45.45
83116;BME280;72996;40.206;44.498;2024-01-16T02:35:24;89593.16;;;3.07;45.33
83116;BME280;72996;40.206;44.498;2024-01-16T02:37:50;89570.91;;;3.00;45.27
83116;BME280;72996;40.206;44.498;2024-01-16T02:40:16;89573.94;;;3.10;45.14
83116;BME280;72996;40.206;44.498;2024-01-16T02:42:42;89576.72;;;3.23;44.76
83116;BME280;72996;40.206;44.498;2024-01-16T02:45:07;89576.00;;;3.52;45.01
83116;BME280;72996;40.206;44.498;2024-01-16T02:47:34;89543.13;;;3.62;45.42
83116;BME280;72996;40.206;44.498;2024-01-16T02:50:00;89547.41;;;3.65;44.55
83116;BME280;72996;40.206;44.498;2024-01-16T02:52:26;89571.38;;;3.69;43.58
83116;BME280;72996;40.206;44.498;2024-01-16T02:54:51;89576.94;;;3.54;43.49
83116;BME280;72996;40.206;44.498;2024-01-16T02:57:17;89573.16;;;3.20;43.11
83116;BME280;72996;40.206;44.498;2024-01-16T02:59:46;89594.00;;;3.26;43.25
83116;BME280;72996;40.206;44.498;2024-01-16T03:02:12;89579.41;;;3.06;43.18
83116;BME280;72996;40.206;44.498;2024-01-16T03:04:38;89543.94;;;2.87;43.27
83116;BME280;72996;40.206;44.498;2024-01-16T03:07:05;89594.94;;;3.28;42.85
83116;BME280;72996;40.206;44.498;2024-01-16T03:09:30;89585.13;;;3.40;42.10
83116;BME280;72996;40.206;44.498;2024-01-16T03:11:56;89598.84;;;3.46;42.60
83116;BME280;72996;40.206;44.498;2024-01-16T03:14:23;89594.34;;;3.46;42.38
83116;BME280;72996;40.206;44.498;2024-01-16T03:16:48;89599.56;;;3.46;42.50
83116;BME280;72996;40.206;44.498;2024-01-16T03:19:14;89598.69;;;3.68;42.42
83116;BME280;72996;40.206;44.498;2024-01-16T03:21:40;89584.81;;;3.78;42.07
83116;BME280;72996;40.206;44.498;2024-01-16T03:24:07;89578.13;;;3.83;41.60
83116;BME280;72996;40.206;44.498;2024-01-16T03:26:32;89582.56;;;3.93;41.38
83116;BME280;72996;40.206;44.498;2024-01-16T03:28:59;89583.41;;;4.01;41.93
83116;BME280;72996;40.206;44.498;2024-01-16T03:31:24;89585.88;;;4.18;40.79
83116;BME280;72996;40.206;44.498;2024-01-16T03:33:50;89588.88;;;4.27;40.90
83116;BME280;72996;40.206;44.498;2024-01-16T03:36:16;89571.25;;;4.28;41.54
83116;BME280;72996;40.206;44.498;2024-01-16T03:38:42;89588.22;;;4.45;40.49
83116;BME280;72996;40.206;44.498;2024-01-16T03:41:10;89591.19;;;4.55;41.34
83116;BME280;72996;40.206;44.498;2024-01-16T03:43:36;89594.97;;;4.59;40.29
83116;BME280;72996;40.206;44.498;2024-01-16T03:46:02;89598.13;;;4.71;40.73
83116;BME280;72996;40.206;44.498;2024-01-16T03:48:28;89602.34;;;4.79;40.75
83116;BME280;72996;40.206;44.498;2024-01-16T03:50:55;89582.88;;;4.75;40.23
83116;BME280;72996;40.206;44.498;2024-01-16T03:53:21;89602.25;;;4.85;39.69
83116;BME280;72996;40.206;44.498;2024-01-16T03:55:48;89600.22;;;4.78;40.99
83116;BME280;72996;40.206;44.498;2024-01-16T03:58:15;89610.19;;;4.61;41.56
83116;BME280;72996;40.206;44.498;2024-01-16T04:00:41;89617.38;;;4.31;43.02
83116;BME280;72996;40.206;44.498;2024-01-16T04:03:07;89628.09;;;4.03;43.41
83116;BME280;72996;40.206;44.498;2024-01-16T04:05:33;89620.19;;;3.85;44.50
83116;BME280;72996;40.206;44.498;2024-01-16T04:07:59;89614.44;;;3.86;44.85
83116;BME280;72996;40.206;44.498;2024-01-16T04:10:24;89608.63;;;3.99;43.62
83116;BME280;72996;40.206;44.498;2024-01-16T04:12:50;89589.91;;;3.95;44.50
83116;BME280;72996;40.206;44.498;2024-01-16T04:15:16;89588.06;;;3.90;44.94
83116;BME280;72996;40.206;44.498;2024-01-16T04:17:41;89589.91;;;3.95;44.37
83116;BME280;72996;40.206;44.498;2024-01-16T04:20:07;89589.81;;;4.06;44.75
83116;BME280;72996;40.206;44.498;2024-01-16T04:22:35;89569.66;;;4.01;44.64
83116;BME280;72996;40.206;44.498;2024-01-16T04:25:01;89595.19;;;4.13;44.35
83116;BME280;72996;40.206;44.498;2024-01-16T04:27:27;89603.75;;;4.38;43.96
83116;BME280;72996;40.206;44.498;2024-01-16T04:29:52;89608.25;;;4.37;44.64
83116;BME280;72996;40.206;44.498;2024-01-16T04:32:18;89605.88;;;4.39;43.79
83116;BME280;72996;40.206;44.498;2024-01-16T04:34:44;89613.56;;;4.32;45.73
83116;BME280;72996;40.206;44.498;2024-01-16T04:37:10;89615.19;;;4.35;45.34
83116;BME280;72996;40.206;44.498;2024-01-16T04:39:35;89612.81;;;4.37;44.78
83116;BME280;72996;40.206;44.498;2024-01-16T04:42:01;89623.97;;;4.37;46.19
83116;BME280;72996;40.206;44.498;2024-01-16T04:44:27;89635.38;;;4.16;45.73
83116;BME280;72996;40.206;44.498;2024-01-16T04:46:52;89625.03;;;3.99;46.17
83116;BME280;72996;40.206;44.498;2024-01-16T04:49:18;89608.97;;;3.60;46.54
83116;BME280;72996;40.206;44.498;2024-01-16T04:51:43;89638.78;;;3.76;46.63
83116;BME280;72996;40.206;44.498;2024-01-16T04:54:11;89614.53;;;3.75;46.58
83116;BME280;72996;40.206;44.498;2024-01-16T04:56:36;89638.53;;;3.79;47.22
83116;BME280;72996;40.206;44.498;2024-01-16T04:59:02;89629.25;;;3.49;47.76
83116;BME280;72996;40.206;44.498;2024-01-16T05:01:28;89624.59;;;3.36;46.79
83116;BME280;72996;40.206;44.498;2024-01-16T05:03:53;89634.78;;;3.34;47.65
83116;BME280;72996;40.206;44.498;2024-01-16T05:06:20;89628.63;;;3.32;47.12
83116;BME280;72996;40.206;44.498;2024-01-16T05:08:46;89631.22;;;3.37;49.52
83116;BME280;72996;40.206;44.498;2024-01-16T05:11:12;89634.84;;;3.29;48.58
83116;BME280;72996;40.206;44.498;2024-01-16T05:13:38;89624.69;;;3.20;47.78
83116;BME280;72996;40.206;44.498;2024-01-16T05:16:04;89621.72;;;3.40;48.23
83116;BME280;72996;40.206;44.498;2024-01-16T05:18:30;89621.09;;;3.58;47.60
83116;BME280;72996;40.206;44.498;2024-01-16T05:20:56;89635.72;;;3.72;47.76
83116;BME280;72996;40.206;44.498;2024-01-16T05:23:22;89632.63;;;3.73;47.05
83116;BME280;72996;40.206;44.498;2024-01-16T05:25:47;89629.22;;;3.84;47.33
83116;BME280;72996;40.206;44.498;2024-01-16T05:28:13;89637.28;;;3.86;47.13
83116;BME280;72996;40.206;44.498;2024-01-16T05:30:39;89636.09;;;3.87;47.69
83116;BME280;72996;40.206;44.498;2024-01-16T05:33:04;89641.22;;;3.98;47.02
83116;BME280;72996;40.206;44.498;2024-01-16T05:35:30;89642.41;;;3.97;47.32
83116;BME280;72996;40.206;44.498;2024-01-16T05:37:56;89636.97;;;3.95;47.11
83116;BME280;72996;40.206;44.498;2024-01-16T05:40:22;89631.59;;;3.82;46.85
83116;BME280;72996;40.206;44.498;2024-01-16T05:42:48;89641.97;;;3.63;48.58
83116;BME280;72996;40.206;44.498;2024-01-16T05:45:15;89630.28;;;3.70;48.21
83116;BME280;72996;40.206;44.498;2024-01-16T05:47:40;89624.78;;;3.73;48.50
83116;BME280;72996;40.206;44.498;2024-01-16T05:50:07;89643.94;;;3.52;50.36
83116;BME280;72996;40.206;44.498;2024-01-16T05:52:32;89637.50;;;3.58;49.03
83116;BME280;72996;40.206;44.498;2024-01-16T05:54:58;89629.09;;;3.71;47.99
83116;BME280;72996;40.206;44.498;2024-01-16T05:57:25;89652.91;;;3.62;51.63
83116;BME280;72996;40.206;44.498;2024-01-16T05:59:51;89647.69;;;3.62;51.50
83116;BME280;72996;40.206;44.498;2024-01-16T06:02:17;89626.41;;;3.47;48.32
83116;BME280;72996;40.206;44.498;2024-01-16T06:04:43;89641.34;;;3.52;48.45
83116;BME280;72996;40.206;44.498;2024-01-16T06:07:08;89639.06;;;3.72;48.38
83116;BME280;72996;40.206;44.498;2024-01-16T06:09:41;89644.59;;;3.93;49.07
83116;BME280;72996;40.206;44.498;2024-01-16T06:12:07;89653.44;;;4.14;48.36
83116;BME280;72996;40.206;44.498;2024-01-16T06:14:34;89660.97;;;4.23;47.70
83116;BME280;72996;40.206;44.498;2024-01-16T06:17:00;89660.44;;;4.30;47.29
83116;BME280;72996;40.206;44.498;2024-01-16T06:19:26;89639.19;;;4.15;47.80
83116;BME280;72996;40.206;44.498;2024-01-16T06:21:53;89671.53;;;4.12;48.14
83116;BME280;72996;40.206;44.498;2024-01-16T06:24:18;89658.91;;;4.16;47.82
83116;BME280;72996;40.206;44.498;2024-01-16T06:26:44;89654.66;;;4.13;48.02
83116;BME280;72996;40.206;44.498;2024-01-16T06:29:10;89654.13;;;4.20;47.38
83116;BME280;72996;40.206;44.498;2024-01-16T06:31:35;89651.28;;;4.42;48.24
83116;BME280;72996;40.206;44.498;2024-01-16T06:34:01;89651.94;;;4.72;46.63
83116;BME280;72996;40.206;44.498;2024-01-16T06:36:27;89648.13;;;4.73;46.20
83116;BME280;72996;40.206;44.498;2024-01-16T06:38:52;89638.94;;;4.85;46.05
83116;BME280;72996;40.206;44.498;2024-01-16T06:41:18;89652.03;;;5.03;45.07
83116;BME280;72996;40.206;44.498;2024-01-16T06:43:44;89649.84;;;5.26;44.70
83116;BME280;72996;40.206;44.498;2024-01-16T06:46:10;89630.03;;;5.12;43.93
83116;BME280;72996;40.206;44.498;2024-01-16T06:48:36;89651.00;;;5.49;44.20
83116;BME280;72996;40.206;44.498;2024-01-16T06:51:05;89659.13;;;5.64;44.78
83116;BME280;72996;40.206;44.498;2024-01-16T06:53:31;89651.25;;;5.64;44.38
83116;BME280;72996;40.206;44.498;2024-01-16T06:55:56;89656.28;;;5.80;43.98
83116;BME280;72996;40.206;44.498;2024-01-16T06:58:22;89641.47;;;5.83;44.33
83116;BME280;72996;40.206;44.498;2024-01-16T07:00:48;89611.97;;;5.77;44.32
83116;BME280;72996;40.206;44.498;2024-01-16T07:03:14;89636.28;;;6.09;43.51
83116;BME280;72996;40.206;44.498;2024-01-16T07:05:40;89634.31;;;6.15;43.39
83116;BME280;72996;40.206;44.498;2024-01-16T07:08:09;89632.59;;;6.30;43.06
83116;BME280;72996;40.206;44.498;2024-01-16T07:10:35;89636.28;;;6.53;42.83
83116;BME280;72996;40.206;44.498;2024-01-16T07:13:01;89638.19;;;6.66;42.77
83116;BME280;72996;40.206;44.498;2024-01-16T07:15:27;89633.13;;;6.68;42.15
83116;BME280;72996;40.206;44.498;2024-01-16T07:17:53;89630.50;;;6.68;41.85
83116;BME280;72996;40.206;44.498;2024-01-16T07:20:18;89625.38;;;6.75;41.77
83116;BME280;72996;40.206;44.498;2024-01-16T07:22:44;89631.13;;;6.74;41.62
83116;BME280;72996;40.206;44.498;2024-01-16T07:25:11;89630.09;;;6.90;41.74
83116;BME280;72996;40.206;44.498;2024-01-16T07:27:36;89626.88;;;6.84;41.38
83116;BME280;72996;40.206;44.498;2024-01-16T07:30:05;89628.78;;;6.83;41.59
83116;BME280;72996;40.206;44.498;2024-01-16T07:32:31;89632.22;;;6.91;41.66
83116;BME280;72996;40.206;44.498;2024-01-16T07:34:57;89631.91;;;6.95;40.97
83116;BME280;72996;40.206;44.498;2024-01-16T07:37:23;89613.94;;;6.86;40.34
83116;BME280;72996;40.206;44.498;2024-01-16T07:39:49;89596.75;;;6.85;40.82
83116;BME280;72996;40.206;44.498;2024-01-16T07:42:15;89610.97;;;7.02;40.26
83116;BME280;72996;40.206;44.498;2024-01-16T07:44:40;89600.16;;;7.19;39.84
83116;BME280;72996;40.206;44.498;2024-01-16T07:47:06;89602.59;;;7.50;40.02
83116;BME280;72996;40.206;44.498;2024-01-16T07:49:32;89594.19;;;7.52;39.22
83116;BME280;72996;40.206;44.498;2024-01-16T07:51:57;89594.91;;;7.73;39.10
83116;BME280;72996;40.206;44.498;2024-01-16T07:54:23;89584.91;;;7.92;38.63
83116;BME280;72996;40.206;44.498;2024-01-16T07:56:51;89587.75;;;7.94;38.89
83116;BME280;72996;40.206;44.498;2024-01-16T07:59:17;89592.09;;;7.91;38.44
83116;BME280;72996;40.206;44.498;2024-01-16T08:01:43;89582.97;;;7.72;38.65
83116;BME280;72996;40.206;44.498;2024-01-16T08:04:09;89590.47;;;7.47;38.44
83116;BME280;72996;40.206;44.498;2024-01-16T08:06:35;89586.78;;;7.30;39.37
83116;BME280;72996;40.206;44.498;2024-01-16T08:09:01;89591.25;;;7.22;38.58
83116;BME280;72996;40.206;44.498;2024-01-16T08:11:26;89578.94;;;7.17;39.38
83116;BME280;72996;40.206;44.498;2024-01-16T08:13:52;89577.91;;;7.20;39.59
83116;BME280;72996;40.206;44.498;2024-01-16T08:16:18;89576.88;;;7.23;39.43
83116;BME280;72996;40.206;44.498;2024-01-16T08:18:43;89571.78;;;7.04;39.94
83116;BME280;72996;40.206;44.498;2024-01-16T08:21:09;89574.97;;;6.51;41.68
83116;BME280;72996;40.206;44.498;2024-01-16T08:23:34;89569.72;;;6.25;41.67
83116;BME280;72996;40.206;44.498;2024-01-16T08:26:00;89570.19;;;6.10;41.96
83116;BME280;72996;40.206;44.498;2024-01-16T08:28:26;89563.03;;;6.11;42.19
83116;BME280;72996;40.206;44.498;2024-01-16T08:30:52;89547.88;;;5.91;43.14
83116;BME280;72996;40.206;44.498;2024-01-16T08:33:19;89556.34;;;5.97;42.80
83116;BME280;72996;40.206;44.498;2024-01-16T08:35:45;89544.97;;;6.07;42.41
83116;BME280;72996;40.206;44.498;2024-01-16T08:38:10;89543.66;;;6.14;42.99
83116;BME280;72996;40.206;44.498;2024-01-16T08:40:36;89527.91;;;6.14;42.54
83116;BME280;72996;40.206;44.498;2024-01-16T08:43:02;89543.94;;;6.36;42.29
83116;BME280;72996;40.206;44.498;2024-01-16T08:45:29;89539.22;;;6.48;42.02
83116;BME280;72996;40.206;44.498;2024-01-16T08:47:55;89531.94;;;6.54;42.00
83116;BME280;72996;40.206;44.498;2024-01-16T08:50:20;89524.97;;;6.56;42.07
83116;BME280;72996;40.206;44.498;2024-01-16T08:52:46;89535.16;;;6.60;42.25
83116;BME280;72996;40.206;44.498;2024-01-16T08:55:12;89509.63;;;6.47;42.78
83116;BME280;72996;40.206;44.498;2024-01-16T08:57:38;89523.25;;;6.59;42.98
83116;BME280;72996;40.206;44.498;2024-01-16T09:00:07;89518.22;;;6.48;42.72
83116;BME280;72996;40.206;44.498;2024-01-16T09:02:36;89511.16;;;6.43;42.70
83116;BME280;72996;40.206;44.498;2024-01-16T09:05:01;89500.44;;;6.41;42.54
83116;BME280;72996;40.206;44.498;2024-01-16T09:07:27;89514.16;;;6.34;43.14
83116;BME280;72996;40.206;44.498;2024-01-16T09:09:53;89506.41;;;6.15;42.92
83116;BME280;72996;40.206;44.498;2024-01-16T09:12:19;89502.47;;;6.22;43.59
83116;BME280;72996;40.206;44.498;2024-01-16T09:14:45;89479.06;;;6.11;43.19
83116;BME280;72996;40.206;44.498;2024-01-16T09:17:11;89489.44;;;5.90;43.78
83116;BME280;72996;40.206;44.498;2024-01-16T09:19:36;89492.09;;;6.03;43.96
83116;BME280;72996;40.206;44.498;2024-01-16T09:22:02;89495.41;;;6.04;43.56
83116;BME280;72996;40.206;44.498;2024-01-16T09:24:29;89510.97;;;5.70;44.10
83116;BME280;72996;40.206;44.498;2024-01-16T09:26:55;89500.22;;;5.74;43.90
83116;BME280;72996;40.206;44.498;2024-01-16T09:29:20;89494.44;;;5.75;44.11
83116;BME280;72996;40.206;44.498;2024-01-16T09:31:47;89488.28;;;5.73;43.59
83116;BME280;72996;40.206;44.498;2024-01-16T09:34:13;89462.91;;;6.07;43.46
83116;BME280;72996;40.206;44.498;2024-01-16T09:36:39;89471.56;;;6.41;43.54
83116;BME280;72996;40.206;44.498;2024-01-16T09:39:06;89483.25;;;6.53;42.83
83116;BME280;72996;40.206;44.498;2024-01-16T09:41:34;89476.50;;;6.44;42.69
83116;BME280;72996;40.206;44.498;2024-01-16T09:44:00;89463.06;;;6.61;42.96
83116;BME280;72996;40.206;44.498;2024-01-16T09:46:26;89458.09;;;6.91;43.06
83116;BME280;72996;40.206;44.498;2024-01-16T09:48:55;89445.19;;;7.34;42.25
83116;BME280;72996;40.206;44.498;2024-01-16T09:51:22;89450.31;;;7.60;41.62
83116;BME280;72996;40.206;44.498;2024-01-16T09:53:48;89440.56;;;7.68;41.75
83116;BME280;72996;40.206;44.498;2024-01-16T09:56:15;89442.28;;;7.65;41.48
83116;BME280;72996;40.206;44.498;2024-01-16T09:58:43;89424.16;;;7.34;41.87
83116;BME280;72996;40.206;44.498;2024-01-16T10:01:11;89436.41;;;7.80;41.73
83116;BME280;72996;40.206;44.498;2024-01-16T10:03:38;89418.84;;;7.75;41.08
83116;BME280;72996;40.206;44.498;2024-01-16T10:06:07;89423.44;;;7.82;41.01
83116;BME280;72996;40.206;44.498;2024-01-16T10:08:33;89424.28;;;8.05;41.09
83116;BME280;72996;40.206;44.498;2024-01-16T10:10:59;89416.38;;;8.33;40.39
83116;BME280;72996;40.206;44.498;2024-01-16T10:13:26;89395.34;;;8.48;40.64
83116;BME280;72996;40.206;44.498;2024-01-16T10:15:52;89397.53;;;8.64;40.16
83116;BME280;72996;40.206;44.498;2024-01-16T10:18:30;89410.28;;;8.53;39.99
83116;BME280;72996;40.206;44.498;2024-01-16T10:20:56;89407.44;;;8.36;40.11
83116;BME280;72996;40.206;44.498;2024-01-16T10:23:23;89401.63;;;8.30;39.94
83116;BME280;72996;40.206;44.498;2024-01-16T10:26:11;89404.59;;;8.34;39.63
83116;BME280;72996;40.206;44.498;2024-01-16T10:28:41;89368.50;;;8.49;40.59
83116;BME280;72996;40.206;44.498;2024-01-16T10:31:09;89387.59;;;9.08;40.40
83116;BME280;72996;40.206;44.498;2024-01-16T10:33:35;89387.25;;;9.34;38.61
83116;BME280;72996;40.206;44.498;2024-01-16T10:36:11;89374.06;;;9.34;38.77
83116;BME280;72996;40.206;44.498;2024-01-16T10:38:42;89363.16;;;9.52;38.70
83116;BME280;72996;40.206;44.498;2024-01-16T10:43:36;89349.72;;;9.88;37.71
83116;BME280;72996;40.206;44.498;2024-01-16T10:46:08;89338.84;;;9.84;37.44
83116;BME280;72996;40.206;44.498;2024-01-16T10:48:35;89333.56;;;9.76;38.07
83116;BME280;72996;40.206;44.498;2024-01-16T10:51:02;89347.59;;;9.94;38.44
83116;BME280;72996;40.206;44.498;2024-01-16T10:53:31;89348.13;;;9.92;36.47
83116;BME280;72996;40.206;44.498;2024-01-16T10:55:59;89320.13;;;9.97;37.20
83116;BME280;72996;40.206;44.498;2024-01-16T10:58:26;89344.75;;;10.14;37.20
83116;BME280;72996;40.206;44.498;2024-01-16T11:00:54;89350.25;;;10.09;36.63
83116;BME280;72996;40.206;44.498;2024-01-16T11:03:31;89329.63;;;10.00;35.56
83116;BME280;72996;40.206;44.498;2024-01-16T11:06:00;89338.44;;;9.95;36.03
83116;BME280;72996;40.206;44.498;2024-01-16T11:08:27;89334.97;;;9.70;36.32
83116;BME280;72996;40.206;44.498;2024-01-16T11:10:58;89346.59;;;9.67;36.97
83116;BME280;72996;40.206;44.498;2024-01-16T11:13:25;89334.81;;;9.68;36.27
83116;BME280;72996;40.206;44.498;2024-01-16T11:15:51;89324.31;;;9.38;37.26
83116;BME280;72996;40.206;44.498;2024-01-16T11:18:17;89337.31;;;9.36;37.59
83116;BME280;72996;40.206;44.498;2024-01-16T11:20:45;89334.34;;;9.02;37.99
83116;BME280;72996;40.206;44.498;2024-01-16T11:23:11;89342.78;;;9.08;38.86
83116;BME280;72996;40.206;44.498;2024-01-16T11:25:38;89336.09;;;9.07;38.49
83116;BME280;72996;40.206;44.498;2024-01-16T11:28:12;89333.78;;;9.11;38.55
83116;BME280;72996;40.206;44.498;2024-01-16T11:30:39;89333.59;;;8.79;38.93
83116;BME280;72996;40.206;44.498;2024-01-16T11:33:06;89350.06;;;8.57;39.18
83116;BME280;72996;40.206;44.498;2024-01-16T11:35:38;89343.38;;;8.48;39.80
83116;BME280;72996;40.206;44.498;2024-01-16T11:38:16;89339.00;;;8.51;39.16
83116;BME280;72996;40.206;44.498;2024-01-16T11:40:42;89342.66;;;8.40;39.20
83116;BME280;72996;40.206;44.498;2024-01-16T11:46:04;89336.56;;;8.10;39.43
83116;BME280;72996;40.206;44.498;2024-01-16T11:48:30;89353.06;;;8.18;39.40
83116;BME280;72996;40.206;44.498;2024-01-16T11:50:56;89364.25;;;8.03;39.60
83116;BME280;72996;40.206;44.498;2024-01-16T11:53:48;89364.31;;;7.83;40.76
83116;BME280;72996;40.206;44.498;2024-01-16T12:01:36;89367.31;;;7.87;40.20
83116;BME280;72996;40.206;44.498;2024-01-16T12:04:05;89367.66;;;7.83;40.50
83116;BME280;72996;40.206;44.498;2024-01-16T12:06:32;89365.16;;;7.78;40.30
83116;BME280;72996;40.206;44.498;2024-01-16T12:09:14;89365.38;;;7.80;40.37
83116;BME280;72996;40.206;44.498;2024-01-16T12:11:41;89355.75;;;7.54;40.73
83116;BME280;72996;40.206;44.498;2024-01-16T12:14:12;89368.28;;;7.69;40.68
83116;BME280;72996;40.206;44.498;2024-01-16T12:16:38;89353.91;;;7.70;40.99
83116;BME280;72996;40.206;44.498;2024-01-16T12:19:08;89349.97;;;7.56;40.75
83116;BME280;72996;40.206;44.498;2024-01-16T12:24:06;89371.06;;;7.63;41.16
83116;BME280;72996;40.206;44.498;2024-01-16T12:26:32;89352.44;;;7.54;40.78
83116;BME280;72996;40.206;44.498;2024-01-16T12:28:58;89366.13;;;7.60;41.23
83116;BME280;72996;40.206;44.498;2024-01-16T12:31:24;89363.97;;;7.51;41.25
83116;BME280;72996;40.206;44.498;2024-01-16T12:33:53;89346.88;;;7.37;41.45
83116;BME280;72996;40.206;44.498;2024-01-16T12:36:19;89357.31;;;7.50;41.48
83116;BME280;72996;40.206;44.498;2024-01-16T12:38:44;89364.19;;;7.32;41.37
83116;BME280;72996;40.206;44.498;2024-01-16T12:41:11;89342.56;;;7.19;41.86
83116;BME280;72996;40.206;44.498;2024-01-16T12:43:37;89356.19;;;7.38;41.60
83116;BME280;72996;40.206;44.498;2024-01-16T12:46:04;89361.78;;;7.42;41.72
83116;BME280;72996;40.206;44.498;2024-01-16T12:48:29;89363.59;;;7.47;41.30
83116;BME280;72996;40.206;44.498;2024-01-16T12:51:02;89359.16;;;7.42;41.96
83116;BME280;72996;40.206;44.498;2024-01-16T12:53:28;89353.16;;;7.34;42.02
83116;BME280;72996;40.206;44.498;2024-01-16T12:55:58;89352.28;;;7.31;41.52
83116;BME280;72996;40.206;44.498;2024-01-16T12:58:36;89360.78;;;7.45;42.11
83116;BME280;72996;40.206;44.498;2024-01-16T13:01:29;89358.66;;;7.43;41.93
83116;BME280;72996;40.206;44.498;2024-01-16T13:03:56;89358.59;;;7.36;41.55
83116;BME280;72996;40.206;44.498;2024-01-16T13:06:22;89372.25;;;7.34;41.58
83116;BME280;72996;40.206;44.498;2024-01-16T13:08:49;89372.00;;;7.45;41.80
83116;BME280;72996;40.206;44.498;2024-01-16T13:11:15;89368.66;;;7.45;41.73